EST,Max TemperatureF,Mean TemperatureF,Min TemperatureF,Max Dew PointF,MeanDew PointF,Min DewpointF,Max Humidity, Mean Humidity, Min Humidity, Max Sea Level PressureIn, Mean Sea Level PressureIn, Min Sea Level PressureIn, Max VisibilityMiles, Mean VisibilityMiles, Min VisibilityMiles, Max Wind SpeedMPH, Mean Wind SpeedMPH, Max Gust SpeedMPH,PrecipitationIn, CloudCover, Events, WindDirDegrees
2013-12-1,40,36,31,28,26,23,70,65,59,30.19,30.06,29.95,10,10,10,13,6,16,0.00,7,,192
2013-12-2,38,34,30,32,30,28,89,80,70,29.96,29.91,29.85,10,8,5,8,3,13,0.00,7,,352
2013-12-3,47,39,30,37,32,27,92,79,65,29.94,29.90,29.87,9,7,5,12,5,16,T,7,Rain,96
2013-12-4,55,47,38,45,41,35,85,76,66,29.98,29.91,29.83,10,10,9,15,8,23,0.00,7,,135
2013-12-5,62,48,34,56,46,30,89,78,66,30.08,29.88,29.80,10,8,3,24,10,28,0.07,8,Rain,226
2013-12-6,34,30,26,31,27,23,92,82,72,30.32,30.19,30.06,10,4,1,14,6,17,0.39,8,Rain-Snow,317
2013-12-7,26,21,15,25,16,10,84,72,59,30.61,30.47,30.28,10,9,6,14,7,18,0.01,7,Snow,299
2013-12-8,28,22,16,24,16,11,84,71,57,30.60,30.35,30.05,10,10,9,21,9,25,T,8,Snow,110
2013-12-9,35,31,27,34,26,18,96,83,69,30.13,30.02,29.90,10,7,2,24,13,31,0.03,8,Rain-Snow,219
2013-12-10,27,24,20,16,13,5,77,60,42,30.25,30.09,30.02,10,8,2,26,14,35,0.02,7,Snow,243
2013-12-11,24,21,17,19,14,8,92,75,57,30.38,30.29,30.21,10,5,0,20,10,26,0.10,7,Snow,251
2013-12-12,18,12,5,12,4,-3,88,66,43,30.46,30.36,30.25,10,8,1,21,12,26,0.05,6,Snow,249
2013-12-13,29,23,16,15,10,2,73,61,49,30.29,30.24,30.20,10,10,9,16,8,22,T,7,Snow,227
2013-12-14,34,29,23,34,25,15,96,82,68,30.25,29.97,29.62,10,3,0,16,9,22,0.44,8,Rain-Snow,110
2013-12-15,35,25,15,33,19,8,100,83,65,30.05,29.82,29.63,10,5,1,26,15,33,0.06,8,Rain-Snow,258
2013-12-16,24,17,10,15,8,6,83,67,50,30.19,30.11,29.99,10,9,2,16,7,21,0.01,6,Snow,190
2013-12-17,28,24,20,25,21,16,92,83,74,30.04,29.96,29.88,10,4,1,17,9,22,0.12,8,Snow,222
2013-12-18,28,25,22,21,18,14,88,76,63,30.17,30.11,30.04,10,7,1,18,11,23,0.03,7,Snow,225
2013-12-19,45,35,25,31,23,14,68,58,47,30.07,30.03,29.99,10,10,10,17,10,24,0.00,7,,205
2013-12-20,55,49,43,52,39,26,93,69,45,29.97,29.89,29.83,10,9,2,17,10,24,0.12,8,Rain,201
2013-12-21,61,53,44,59,50,44,100,93,86,29.83,29.75,29.54,10,5,1,18,9,26,1.04,8,Rain,172
2013-12-22,64,53,42,59,49,37,96,76,55,29.96,29.71,29.47,10,9,1,32,14,43,0.50,7,Rain,230
2013-12-23,42,36,29,38,28,17,92,75,58,30.31,30.14,29.95,10,9,2,15,8,21,0.08,8,Rain-Snow,280
2013-12-24,29,21,12,21,13,7,88,75,61,30.53,30.34,30.21,10,5,1,20,10,28,0.08,7,Snow,268
2013-12-25,26,19,12,19,11,7,88,72,55,30.52,30.39,30.20,10,10,8,15,6,22,T,8,Snow,175
2013-12-26,32,26,20,27,21,14,92,73,53,30.35,30.18,30.06,10,8,0,24,10,33,0.04,7,Snow,225
2013-12-27,40,32,24,27,23,16,74,67,59,30.35,30.29,30.21,10,10,9,14,8,20,T,6,Snow,216
2013-12-28,50,43,36,31,27,25,70,58,46,30.19,30.13,30.02,10,10,10,18,11,24,0.00,4,,215
2013-12-29,42,36,30,39,32,23,100,73,46,29.99,29.81,29.68,10,8,3,20,8,25,0.13,8,Rain-Snow,231
2013-12-30,30,24,18,25,14,9,92,77,62,30.25,30.13,29.89,10,6,1,20,8,25,0.05,8,Snow,346
2013-12-31,21,18,14,18,13,7,84,73,61,30.32,30.17,30.01,10,5,0,23,10,33,0.15,8,Snow,236